sensor_id;sensor_type;location;lat;lon;timestamp;P1;durP1;ratioP1;P2;durP2;ratioP2
16179;SDS011;8196;49.428;10.906;2022-10-18T00:02:22;6.90;;;4.93;;
16179;SDS011;8196;49.428;10.906;2022-10-18T00:04:49;8.63;;;4.60;;
16179;SDS011;8196;49.428;10.906;2022-10-18T00:07:16;8.88;;;4.50;;
16179;SDS011;8196;49.428;10.906;2022-10-18T00:09:43;8.35;;;4.82;;
16179;SDS011;8196;49.428;10.906;2022-10-18T00:12:10;8.65;;;4.68;;
16179;SDS011;8196;49.428;10.906;2022-10-18T00:14:37;8.37;;;5.10;;
16179;SDS011;8196;49.428;10.906;2022-10-18T00:17:04;9.95;;;5.28;;
16179;SDS011;8196;49.428;10.906;2022-10-18T00:19:32;5.85;;;3.95;;
16179;SDS011;8196;49.428;10.906;2022-10-18T00:21:58;7.20;;;4.70;;
16179;SDS011;8196;49.428;10.906;2022-10-18T00:24:25;6.07;;;4.40;;
16179;SDS011;8196;49.428;10.906;2022-10-18T00:26:52;8.65;;;4.80;;
16179;SDS011;8196;49.428;10.906;2022-10-18T00:29:19;9.63;;;5.13;;
16179;SDS011;8196;49.428;10.906;2022-10-18T00:31:46;9.73;;;4.53;;
16179;SDS011;8196;49.428;10.906;2022-10-18T00:34:14;6.38;;;4.50;;
16179;SDS011;8196;49.428;10.906;2022-10-18T00:36:42;8.77;;;4.50;;
16179;SDS011;8196;49.428;10.906;2022-10-18T00:39:14;9.73;;;4.77;;
16179;SDS011;8196;49.428;10.906;2022-10-18T00:41:42;7.73;;;4.30;;
16179;SDS011;8196;49.428;10.906;2022-10-18T00:46:37;6.72;;;4.50;;
16179;SDS011;8196;49.428;10.906;2022-10-18T00:49:06;10.53;;;4.47;;
16179;SDS011;8196;49.428;10.906;2022-10-18T00:51:35;9.23;;;4.25;;
16179;SDS011;8196;49.428;10.906;2022-10-18T00:54:04;7.53;;;4.53;;
16179;SDS011;8196;49.428;10.906;2022-10-18T00:56:31;6.93;;;4.65;;
16179;SDS011;8196;49.428;10.906;2022-10-18T00:58:59;7.28;;;4.78;;
16179;SDS011;8196;49.428;10.906;2022-10-18T01:01:26;9.43;;;4.57;;
16179;SDS011;8196;49.428;10.906;2022-10-18T01:03:53;5.57;;;4.10;;
16179;SDS011;8196;49.428;10.906;2022-10-18T01:06:21;7.47;;;4.40;;
16179;SDS011;8196;49.428;10.906;2022-10-18T01:08:55;4.82;;;4.13;;
16179;SDS011;8196;49.428;10.906;2022-10-18T01:16:59;9.18;;;4.10;;
16179;SDS011;8196;49.428;10.906;2022-10-18T01:19:47;6.10;;;4.25;;
16179;SDS011;8196;49.428;10.906;2022-10-18T01:25:04;5.38;;;4.30;;
16179;SDS011;8196;49.428;10.906;2022-10-18T01:32:47;6.55;;;4.10;;
16179;SDS011;8196;49.428;10.906;2022-10-18T01:35:16;8.50;;;4.75;;
16179;SDS011;8196;49.428;10.906;2022-10-18T01:37:45;9.20;;;4.72;;
16179;SDS011;8196;49.428;10.906;2022-10-18T01:40:13;5.43;;;4.03;;
16179;SDS011;8196;49.428;10.906;2022-10-18T01:42:43;7.70;;;4.57;;
16179;SDS011;8196;49.428;10.906;2022-10-18T01:45:12;9.68;;;4.80;;
16179;SDS011;8196;49.428;10.906;2022-10-18T01:47:41;8.80;;;5.00;;
16179;SDS011;8196;49.428;10.906;2022-10-18T01:50:10;6.80;;;4.70;;
16179;SDS011;8196;49.428;10.906;2022-10-18T01:52:53;7.22;;;4.60;;
16179;SDS011;8196;49.428;10.906;2022-10-18T01:55:21;6.63;;;4.40;;
16179;SDS011;8196;49.428;10.906;2022-10-18T02:00:39;6.00;;;4.20;;
16179;SDS011;8196;49.428;10.906;2022-10-18T02:05:45;7.22;;;4.50;;
16179;SDS011;8196;49.428;10.906;2022-10-18T02:08:30;7.30;;;4.47;;
16179;SDS011;8196;49.428;10.906;2022-10-18T02:11:03;5.60;;;3.90;;
16179;SDS011;8196;49.428;10.906;2022-10-18T02:13:32;5.55;;;4.32;;
16179;SDS011;8196;49.428;10.906;2022-10-18T02:16:03;8.45;;;4.32;;
16179;SDS011;8196;49.428;10.906;2022-10-18T02:18:33;5.25;;;3.92;;
16179;SDS011;8196;49.428;10.906;2022-10-18T02:21:02;8.45;;;4.78;;
16179;SDS011;8196;49.428;10.906;2022-10-18T02:23:30;6.22;;;4.65;;
16179;SDS011;8196;49.428;10.906;2022-10-18T02:25:59;6.10;;;4.37;;
16179;SDS011;8196;49.428;10.906;2022-10-18T02:28:26;5.35;;;3.75;;
16179;SDS011;8196;49.428;10.906;2022-10-18T02:30:57;5.65;;;4.10;;
16179;SDS011;8196;49.428;10.906;2022-10-18T02:36:03;4.20;;;3.80;;
16179;SDS011;8196;49.428;10.906;2022-10-18T02:38:31;5.18;;;4.00;;
16179;SDS011;8196;49.428;10.906;2022-10-18T02:40:58;5.38;;;4.20;;
16179;SDS011;8196;49.428;10.906;2022-10-18T02:43:25;6.60;;;3.80;;
16179;SDS011;8196;49.428;10.906;2022-10-18T02:45:52;5.95;;;4.30;;
16179;SDS011;8196;49.428;10.906;2022-10-18T02:48:19;5.70;;;3.97;;
16179;SDS011;8196;49.428;10.906;2022-10-18T02:50:47;6.15;;;4.40;;
16179;SDS011;8196;49.428;10.906;2022-10-18T02:53:14;6.83;;;4.50;;
16179;SDS011;8196;49.428;10.906;2022-10-18T02:55:41;9.20;;;4.43;;
16179;SDS011;8196;49.428;10.906;2022-10-18T02:58:08;6.18;;;3.78;;
16179;SDS011;8196;49.428;10.906;2022-10-18T03:00:35;6.45;;;3.90;;
16179;SDS011;8196;49.428;10.906;2022-10-18T03:03:02;5.93;;;4.20;;
16179;SDS011;8196;49.428;10.906;2022-10-18T03:05:29;5.17;;;3.87;;
16179;SDS011;8196;49.428;10.906;2022-10-18T03:07:56;7.85;;;3.72;;
16179;SDS011;8196;49.428;10.906;2022-10-18T03:10:23;5.78;;;3.97;;
16179;SDS011;8196;49.428;10.906;2022-10-18T03:12:50;7.53;;;3.85;;
16179;SDS011;8196;49.428;10.906;2022-10-18T03:15:18;6.15;;;4.00;;
16179;SDS011;8196;49.428;10.906;2022-10-18T03:17:45;7.07;;;4.22;;
16179;SDS011;8196;49.428;10.906;2022-10-18T03:20:12;4.27;;;3.67;;
16179;SDS011;8196;49.428;10.906;2022-10-18T03:22:39;4.35;;;3.20;;
16179;SDS011;8196;49.428;10.906;2022-10-18T03:25:06;4.53;;;3.40;;
16179;SDS011;8196;49.428;10.906;2022-10-18T03:27:33;6.35;;;3.78;;
16179;SDS011;8196;49.428;10.906;2022-10-18T03:30:00;6.28;;;3.63;;
16179;SDS011;8196;49.428;10.906;2022-10-18T03:32:27;7.43;;;3.97;;
16179;SDS011;8196;49.428;10.906;2022-10-18T03:34:55;6.35;;;3.80;;
16179;SDS011;8196;49.428;10.906;2022-10-18T03:37:22;5.20;;;3.50;;
16179;SDS011;8196;49.428;10.906;2022-10-18T03:39:49;4.97;;;3.63;;
16179;SDS011;8196;49.428;10.906;2022-10-18T03:42:16;4.50;;;3.83;;
16179;SDS011;8196;49.428;10.906;2022-10-18T03:44:43;5.85;;;3.67;;
16179;SDS011;8196;49.428;10.906;2022-10-18T03:47:10;7.50;;;3.80;;
16179;SDS011;8196;49.428;10.906;2022-10-18T03:49:37;6.40;;;3.38;;
16179;SDS011;8196;49.428;10.906;2022-10-18T03:52:05;6.03;;;3.55;;
16179;SDS011;8196;49.428;10.906;2022-10-18T03:54:32;4.97;;;3.28;;
16179;SDS011;8196;49.428;10.906;2022-10-18T03:56:59;5.87;;;3.60;;
16179;SDS011;8196;49.428;10.906;2022-10-18T03:59:26;4.82;;;3.40;;
16179;SDS011;8196;49.428;10.906;2022-10-18T04:01:53;6.32;;;3.38;;
16179;SDS011;8196;49.428;10.906;2022-10-18T04:04:20;4.82;;;3.30;;
16179;SDS011;8196;49.428;10.906;2022-10-18T04:06:47;5.45;;;3.28;;
16179;SDS011;8196;49.428;10.906;2022-10-18T04:09:14;6.75;;;3.50;;
16179;SDS011;8196;49.428;10.906;2022-10-18T04:11:41;4.63;;;3.33;;
16179;SDS011;8196;49.428;10.906;2022-10-18T04:14:08;4.60;;;3.30;;
16179;SDS011;8196;49.428;10.906;2022-10-18T04:16:35;7.55;;;3.70;;
16179;SDS011;8196;49.428;10.906;2022-10-18T04:19:02;6.40;;;3.70;;
16179;SDS011;8196;49.428;10.906;2022-10-18T04:21:29;7.80;;;3.67;;
16179;SDS011;8196;49.428;10.906;2022-10-18T04:23:56;6.50;;;3.65;;
16179;SDS011;8196;49.428;10.906;2022-10-18T04:26:23;5.40;;;3.70;;
16179;SDS011;8196;49.428;10.906;2022-10-18T04:28:50;4.30;;;3.90;;
16179;SDS011;8196;49.428;10.906;2022-10-18T04:31:18;5.90;;;3.40;;
16179;SDS011;8196;49.428;10.906;2022-10-18T04:33:45;5.88;;;3.53;;
16179;SDS011;8196;49.428;10.906;2022-10-18T04:36:12;7.47;;;3.78;;
16179;SDS011;8196;49.428;10.906;2022-10-18T04:38:39;6.10;;;3.65;;
16179;SDS011;8196;49.428;10.906;2022-10-18T04:41:06;6.45;;;4.07;;
16179;SDS011;8196;49.428;10.906;2022-10-18T04:43:33;6.40;;;3.80;;
16179;SDS011;8196;49.428;10.906;2022-10-18T04:46:00;6.00;;;3.58;;
16179;SDS011;8196;49.428;10.906;2022-10-18T04:48:27;6.78;;;4.70;;
16179;SDS011;8196;49.428;10.906;2022-10-18T04:50:54;6.90;;;4.60;;
16179;SDS011;8196;49.428;10.906;2022-10-18T04:53:22;5.28;;;4.78;;
16179;SDS011;8196;49.428;10.906;2022-10-18T04:55:49;9.98;;;4.47;;
16179;SDS011;8196;49.428;10.906;2022-10-18T04:58:16;7.17;;;4.30;;
16179;SDS011;8196;49.428;10.906;2022-10-18T05:00:44;7.68;;;4.55;;
16179;SDS011;8196;49.428;10.906;2022-10-18T05:03:12;6.25;;;4.80;;
16179;SDS011;8196;49.428;10.906;2022-10-18T05:05:40;5.57;;;4.40;;
16179;SDS011;8196;49.428;10.906;2022-10-18T05:08:27;7.25;;;4.80;;
16179;SDS011;8196;49.428;10.906;2022-10-18T05:10:54;7.77;;;5.00;;
16179;SDS011;8196;49.428;10.906;2022-10-18T05:13:21;8.23;;;4.90;;
16179;SDS011;8196;49.428;10.906;2022-10-18T05:15:48;5.68;;;4.70;;
16179;SDS011;8196;49.428;10.906;2022-10-18T05:18:15;6.30;;;4.65;;
16179;SDS011;8196;49.428;10.906;2022-10-18T05:20:42;8.43;;;4.53;;
16179;SDS011;8196;49.428;10.906;2022-10-18T05:23:10;7.85;;;5.03;;
16179;SDS011;8196;49.428;10.906;2022-10-18T05:25:37;7.57;;;4.77;;
16179;SDS011;8196;49.428;10.906;2022-10-18T05:28:04;10.05;;;4.75;;
16179;SDS011;8196;49.428;10.906;2022-10-18T05:30:46;11.20;;;5.43;;
16179;SDS011;8196;49.428;10.906;2022-10-18T05:33:13;8.13;;;4.75;;
16179;SDS011;8196;49.428;10.906;2022-10-18T05:35:40;9.55;;;4.72;;
16179;SDS011;8196;49.428;10.906;2022-10-18T05:38:07;6.55;;;4.40;;
16179;SDS011;8196;49.428;10.906;2022-10-18T05:40:37;6.20;;;4.25;;
16179;SDS011;8196;49.428;10.906;2022-10-18T05:43:04;6.70;;;4.57;;
16179;SDS011;8196;49.428;10.906;2022-10-18T05:45:31;6.95;;;4.70;;
16179;SDS011;8196;49.428;10.906;2022-10-18T05:47:58;5.30;;;4.43;;
16179;SDS011;8196;49.428;10.906;2022-10-18T05:50:25;7.35;;;4.47;;
16179;SDS011;8196;49.428;10.906;2022-10-18T05:52:56;5.18;;;4.57;;
16179;SDS011;8196;49.428;10.906;2022-10-18T05:55:37;7.25;;;4.95;;
16179;SDS011;8196;49.428;10.906;2022-10-18T05:58:04;7.87;;;4.70;;
16179;SDS011;8196;49.428;10.906;2022-10-18T06:00:33;5.65;;;4.50;;
16179;SDS011;8196;49.428;10.906;2022-10-18T06:03:01;6.72;;;4.47;;
16179;SDS011;8196;49.428;10.906;2022-10-18T06:05:28;5.80;;;4.80;;
16179;SDS011;8196;49.428;10.906;2022-10-18T06:07:56;7.07;;;5.05;;
16179;SDS011;8196;49.428;10.906;2022-10-18T06:10:23;6.18;;;4.80;;
16179;SDS011;8196;49.428;10.906;2022-10-18T06:12:50;7.57;;;4.72;;
16179;SDS011;8196;49.428;10.906;2022-10-18T06:15:17;7.68;;;4.63;;
16179;SDS011;8196;49.428;10.906;2022-10-18T06:17:44;5.60;;;4.95;;
16179;SDS011;8196;49.428;10.906;2022-10-18T06:20:11;6.97;;;5.38;;
16179;SDS011;8196;49.428;10.906;2022-10-18T06:22:38;11.47;;;5.93;;
16179;SDS011;8196;49.428;10.906;2022-10-18T06:25:05;9.38;;;5.45;;
16179;SDS011;8196;49.428;10.906;2022-10-18T06:27:33;6.68;;;4.57;;
16179;SDS011;8196;49.428;10.906;2022-10-18T06:30:00;7.23;;;4.90;;
16179;SDS011;8196;49.428;10.906;2022-10-18T06:32:27;10.13;;;5.15;;
16179;SDS011;8196;49.428;10.906;2022-10-18T06:34:55;8.07;;;5.25;;
16179;SDS011;8196;49.428;10.906;2022-10-18T06:37:22;9.13;;;5.40;;
16179;SDS011;8196;49.428;10.906;2022-10-18T06:39:49;8.57;;;5.13;;
16179;SDS011;8196;49.428;10.906;2022-10-18T06:42:16;8.37;;;4.77;;
16179;SDS011;8196;49.428;10.906;2022-10-18T06:44:47;6.38;;;4.68;;
16179;SDS011;8196;49.428;10.906;2022-10-18T06:47:15;6.90;;;4.57;;
16179;SDS011;8196;49.428;10.906;2022-10-18T06:49:42;8.97;;;4.37;;
16179;SDS011;8196;49.428;10.906;2022-10-18T06:52:09;5.97;;;4.40;;
16179;SDS011;8196;49.428;10.906;2022-10-18T06:54:36;7.85;;;4.30;;
16179;SDS011;8196;49.428;10.906;2022-10-18T06:57:03;8.75;;;4.72;;
16179;SDS011;8196;49.428;10.906;2022-10-18T06:59:30;8.30;;;4.83;;
16179;SDS011;8196;49.428;10.906;2022-10-18T07:01:57;6.28;;;4.50;;
16179;SDS011;8196;49.428;10.906;2022-10-18T07:04:26;7.63;;;4.53;;
16179;SDS011;8196;49.428;10.906;2022-10-18T07:06:54;5.20;;;4.60;;
16179;SDS011;8196;49.428;10.906;2022-10-18T07:09:21;7.97;;;4.43;;
16179;SDS011;8196;49.428;10.906;2022-10-18T07:11:49;7.20;;;4.77;;
16179;SDS011;8196;49.428;10.906;2022-10-18T07:14:17;7.07;;;4.63;;
16179;SDS011;8196;49.428;10.906;2022-10-18T07:16:45;6.43;;;4.40;;
16179;SDS011;8196;49.428;10.906;2022-10-18T07:19:12;6.07;;;4.57;;
16179;SDS011;8196;49.428;10.906;2022-10-18T07:21:40;8.27;;;4.50;;
16179;SDS011;8196;49.428;10.906;2022-10-18T07:24:07;6.80;;;4.72;;
16179;SDS011;8196;49.428;10.906;2022-10-18T07:26:34;8.75;;;4.50;;
16179;SDS011;8196;49.428;10.906;2022-10-18T07:29:05;5.93;;;4.70;;
16179;SDS011;8196;49.428;10.906;2022-10-18T07:31:33;9.80;;;5.28;;
16179;SDS011;8196;49.428;10.906;2022-10-18T07:34:02;12.23;;;4.93;;
16179;SDS011;8196;49.428;10.906;2022-10-18T07:36:29;6.90;;;4.50;;
16179;SDS011;8196;49.428;10.906;2022-10-18T07:38:56;9.07;;;4.80;;
16179;SDS011;8196;49.428;10.906;2022-10-18T07:41:24;7.13;;;4.40;;
16179;SDS011;8196;49.428;10.906;2022-10-18T07:43:51;5.70;;;5.03;;
16179;SDS011;8196;49.428;10.906;2022-10-18T07:46:20;7.13;;;5.40;;
16179;SDS011;8196;49.428;10.906;2022-10-18T07:48:47;7.93;;;5.32;;
16179;SDS011;8196;49.428;10.906;2022-10-18T07:51:15;6.07;;;4.80;;
16179;SDS011;8196;49.428;10.906;2022-10-18T07:53:42;9.03;;;5.20;;
16179;SDS011;8196;49.428;10.906;2022-10-18T07:56:10;8.10;;;5.30;;
16179;SDS011;8196;49.428;10.906;2022-10-18T07:58:42;9.23;;;5.13;;
16179;SDS011;8196;49.428;10.906;2022-10-18T08:01:09;6.95;;;4.30;;
16179;SDS011;8196;49.428;10.906;2022-10-18T08:03:37;5.60;;;4.23;;
16179;SDS011;8196;49.428;10.906;2022-10-18T08:06:05;6.87;;;4.43;;
16179;SDS011;8196;49.428;10.906;2022-10-18T08:08:34;7.40;;;5.05;;
16179;SDS011;8196;49.428;10.906;2022-10-18T08:11:02;8.77;;;5.47;;
16179;SDS011;8196;49.428;10.906;2022-10-18T08:13:30;7.15;;;5.20;;
16179;SDS011;8196;49.428;10.906;2022-10-18T08:16:05;8.07;;;5.50;;
16179;SDS011;8196;49.428;10.906;2022-10-18T08:18:33;7.47;;;5.10;;
16179;SDS011;8196;49.428;10.906;2022-10-18T08:21:00;6.50;;;5.10;;
16179;SDS011;8196;49.428;10.906;2022-10-18T08:23:28;6.20;;;5.10;;
16179;SDS011;8196;49.428;10.906;2022-10-18T08:25:55;7.03;;;4.93;;
16179;SDS011;8196;49.428;10.906;2022-10-18T08:28:22;6.57;;;4.40;;
16179;SDS011;8196;49.428;10.906;2022-10-18T08:30:49;6.28;;;4.75;;
16179;SDS011;8196;49.428;10.906;2022-10-18T08:33:16;7.13;;;4.80;;
16179;SDS011;8196;49.428;10.906;2022-10-18T08:35:52;7.07;;;4.38;;
16179;SDS011;8196;49.428;10.906;2022-10-18T08:38:19;4.85;;;4.35;;
16179;SDS011;8196;49.428;10.906;2022-10-18T08:40:47;7.13;;;4.60;;
16179;SDS011;8196;49.428;10.906;2022-10-18T08:43:22;6.57;;;4.88;;
16179;SDS011;8196;49.428;10.906;2022-10-18T08:45:52;7.40;;;4.30;;
16179;SDS011;8196;49.428;10.906;2022-10-18T08:48:22;5.63;;;4.07;;
16179;SDS011;8196;49.428;10.906;2022-10-18T08:50:53;5.40;;;4.30;;
16179;SDS011;8196;49.428;10.906;2022-10-18T08:55:51;5.40;;;4.22;;
16179;SDS011;8196;49.428;10.906;2022-10-18T08:58:21;5.93;;;3.88;;
16179;SDS011;8196;49.428;10.906;2022-10-18T09:06:11;5.47;;;4.17;;
16179;SDS011;8196;49.428;10.906;2022-10-18T09:19:50;5.75;;;3.60;;
16179;SDS011;8196;49.428;10.906;2022-10-18T09:25:12;6.17;;;3.50;;
16179;SDS011;8196;49.428;10.906;2022-10-18T09:27:46;5.63;;;3.33;;
16179;SDS011;8196;49.428;10.906;2022-10-18T09:35:48;6.40;;;2.90;;
16179;SDS011;8196;49.428;10.906;2022-10-18T09:38:18;3.20;;;2.90;;
16179;SDS011;8196;49.428;10.906;2022-10-18T09:40:52;5.33;;;2.90;;
16179;SDS011;8196;49.428;10.906;2022-10-18T09:43:22;5.25;;;2.88;;
16179;SDS011;8196;49.428;10.906;2022-10-18T09:45:51;4.20;;;2.83;;
16179;SDS011;8196;49.428;10.906;2022-10-18T09:48:26;4.50;;;2.70;;
16179;SDS011;8196;49.428;10.906;2022-10-18T09:50:55;3.70;;;2.72;;
16179;SDS011;8196;49.428;10.906;2022-10-18T09:53:26;3.58;;;2.30;;
16179;SDS011;8196;49.428;10.906;2022-10-18T09:56:01;3.53;;;2.50;;
16179;SDS011;8196;49.428;10.906;2022-10-18T09:58:46;4.95;;;2.50;;
16179;SDS011;8196;49.428;10.906;2022-10-18T10:01:14;3.53;;;2.70;;
16179;SDS011;8196;49.428;10.906;2022-10-18T10:03:42;3.70;;;2.90;;
16179;SDS011;8196;49.428;10.906;2022-10-18T10:08:41;4.13;;;2.38;;
16179;SDS011;8196;49.428;10.906;2022-10-18T10:11:25;3.40;;;2.30;;
16179;SDS011;8196;49.428;10.906;2022-10-18T10:13:55;3.00;;;2.27;;
16179;SDS011;8196;49.428;10.906;2022-10-18T10:16:23;3.83;;;2.58;;
16179;SDS011;8196;49.428;10.906;2022-10-18T10:18:52;5.00;;;2.33;;
16179;SDS011;8196;49.428;10.906;2022-10-18T10:21:19;4.90;;;2.50;;
16179;SDS011;8196;49.428;10.906;2022-10-18T10:23:50;3.08;;;2.72;;
16179;SDS011;8196;49.428;10.906;2022-10-18T10:26:21;4.60;;;2.50;;
16179;SDS011;8196;49.428;10.906;2022-10-18T10:28:48;4.27;;;2.50;;
16179;SDS011;8196;49.428;10.906;2022-10-18T10:33:45;4.47;;;2.70;;
16179;SDS011;8196;49.428;10.906;2022-10-18T10:36:16;5.15;;;2.60;;
16179;SDS011;8196;49.428;10.906;2022-10-18T10:38:43;5.32;;;2.90;;
16179;SDS011;8196;49.428;10.906;2022-10-18T10:41:17;5.40;;;2.77;;
16179;SDS011;8196;49.428;10.906;2022-10-18T10:43:45;4.00;;;2.83;;
16179;SDS011;8196;49.428;10.906;2022-10-18T10:46:14;5.05;;;2.67;;
16179;SDS011;8196;49.428;10.906;2022-10-18T10:48:48;4.00;;;2.50;;
16179;SDS011;8196;49.428;10.906;2022-10-18T10:51:17;5.95;;;2.75;;
16179;SDS011;8196;49.428;10.906;2022-10-18T10:56:50;4.50;;;2.72;;
16179;SDS011;8196;49.428;10.906;2022-10-18T10:59:20;6.53;;;2.80;;
16179;SDS011;8196;49.428;10.906;2022-10-18T11:01:48;5.17;;;2.77;;
16179;SDS011;8196;49.428;10.906;2022-10-18T11:04:43;4.07;;;2.78;;
16179;SDS011;8196;49.428;10.906;2022-10-18T11:12:23;5.32;;;2.90;;
16179;SDS011;8196;49.428;10.906;2022-10-18T11:14:56;7.65;;;2.70;;
16179;SDS011;8196;49.428;10.906;2022-10-18T11:17:33;4.35;;;3.10;;
16179;SDS011;8196;49.428;10.906;2022-10-18T11:22:32;5.57;;;2.90;;
16179;SDS011;8196;49.428;10.906;2022-10-18T11:25:01;3.70;;;3.00;;
16179;SDS011;8196;49.428;10.906;2022-10-18T11:30:20;4.18;;;3.17;;
16179;SDS011;8196;49.428;10.906;2022-10-18T11:38:20;5.35;;;2.90;;
16179;SDS011;8196;49.428;10.906;2022-10-18T11:43:22;4.50;;;2.90;;
16179;SDS011;8196;49.428;10.906;2022-10-18T11:51:46;6.97;;;3.40;;
16179;SDS011;8196;49.428;10.906;2022-10-18T11:59:46;6.18;;;3.30;;
16179;SDS011;8196;49.428;10.906;2022-10-18T12:02:21;5.57;;;3.15;;
16179;SDS011;8196;49.428;10.906;2022-10-18T12:04:56;3.38;;;3.08;;
16179;SDS011;8196;49.428;10.906;2022-10-18T12:07:48;7.72;;;3.60;;
16179;SDS011;8196;49.428;10.906;2022-10-18T12:10:19;4.97;;;3.45;;
16179;SDS011;8196;49.428;10.906;2022-10-18T12:13:06;6.60;;;3.95;;
16179;SDS011;8196;49.428;10.906;2022-10-18T12:15:38;4.60;;;3.20;;
16179;SDS011;8196;49.428;10.906;2022-10-18T12:18:14;5.17;;;3.70;;
16179;SDS011;8196;49.428;10.906;2022-10-18T12:20:47;3.90;;;3.50;;
16179;SDS011;8196;49.428;10.906;2022-10-18T12:23:18;4.65;;;3.28;;
16179;SDS011;8196;49.428;10.906;2022-10-18T12:25:48;4.33;;;3.30;;
16179;SDS011;8196;49.428;10.906;2022-10-18T12:30:51;5.43;;;3.13;;
16179;SDS011;8196;49.428;10.906;2022-10-18T12:33:22;4.07;;;3.20;;
16179;SDS011;8196;49.428;10.906;2022-10-18T12:38:37;4.30;;;3.20;;
16179;SDS011;8196;49.428;10.906;2022-10-18T12:41:09;6.07;;;3.67;;
16179;SDS011;8196;49.428;10.906;2022-10-18T12:43:47;7.78;;;3.20;;
16179;SDS011;8196;49.428;10.906;2022-10-18T12:46:16;3.65;;;2.90;;
16179;SDS011;8196;49.428;10.906;2022-10-18T12:48:44;4.53;;;3.17;;
16179;SDS011;8196;49.428;10.906;2022-10-18T12:53:43;4.25;;;3.28;;
16179;SDS011;8196;49.428;10.906;2022-10-18T13:09:29;4.47;;;3.30;;
16179;SDS011;8196;49.428;10.906;2022-10-18T13:15:00;4.60;;;3.08;;
16179;SDS011;8196;49.428;10.906;2022-10-18T13:17:52;6.43;;;3.10;;
16179;SDS011;8196;49.428;10.906;2022-10-18T13:20:24;5.20;;;2.90;;
16179;SDS011;8196;49.428;10.906;2022-10-18T13:26:00;4.40;;;3.23;;
16179;SDS011;8196;49.428;10.906;2022-10-18T13:31:11;9.10;;;3.08;;
16179;SDS011;8196;49.428;10.906;2022-10-18T13:33:41;5.00;;;3.13;;
16179;SDS011;8196;49.428;10.906;2022-10-18T13:38:40;5.38;;;3.45;;
16179;SDS011;8196;49.428;10.906;2022-10-18T13:41:10;7.03;;;3.63;;
16179;SDS011;8196;49.428;10.906;2022-10-18T13:46:20;5.57;;;4.03;;
16179;SDS011;8196;49.428;10.906;2022-10-18T13:48:50;5.63;;;4.45;;
16179;SDS011;8196;49.428;10.906;2022-10-18T13:53:48;7.38;;;4.90;;
16179;SDS011;8196;49.428;10.906;2022-10-18T13:56:23;6.45;;;3.50;;
16179;SDS011;8196;49.428;10.906;2022-10-18T13:59:02;5.13;;;3.70;;
16179;SDS011;8196;49.428;10.906;2022-10-18T14:07:15;5.95;;;3.35;;
16179;SDS011;8196;49.428;10.906;2022-10-18T14:09:47;5.05;;;3.80;;
16179;SDS011;8196;49.428;10.906;2022-10-18T14:12:52;5.30;;;3.73;;
16179;SDS011;8196;49.428;10.906;2022-10-18T14:15:23;5.15;;;3.75;;
16179;SDS011;8196;49.428;10.906;2022-10-18T14:17:52;4.68;;;3.55;;
16179;SDS011;8196;49.428;10.906;2022-10-18T14:23:05;4.07;;;3.10;;
16179;SDS011;8196;49.428;10.906;2022-10-18T14:25:37;4.07;;;3.30;;
16179;SDS011;8196;49.428;10.906;2022-10-18T14:36:13;5.85;;;3.22;;
16179;SDS011;8196;49.428;10.906;2022-10-18T14:38:45;3.60;;;3.30;;
16179;SDS011;8196;49.428;10.906;2022-10-18T14:41:15;6.15;;;3.53;;
16179;SDS011;8196;49.428;10.906;2022-10-18T14:43:42;6.75;;;3.22;;
16179;SDS011;8196;49.428;10.906;2022-10-18T14:46:15;6.05;;;3.47;;
16179;SDS011;8196;49.428;10.906;2022-10-18T14:48:50;4.38;;;3.38;;
16179;SDS011;8196;49.428;10.906;2022-10-18T14:51:17;4.45;;;3.70;;
16179;SDS011;8196;49.428;10.906;2022-10-18T14:53:44;6.05;;;3.60;;
16179;SDS011;8196;49.428;10.906;2022-10-18T14:56:22;4.15;;;3.25;;
16179;SDS011;8196;49.428;10.906;2022-10-18T14:58:50;6.68;;;3.15;;
16179;SDS011;8196;49.428;10.906;2022-10-18T15:01:18;4.53;;;3.08;;
16179;SDS011;8196;49.428;10.906;2022-10-18T15:03:46;4.68;;;4.28;;
16179;SDS011;8196;49.428;10.906;2022-10-18T15:06:15;3.28;;;2.97;;
16179;SDS011;8196;49.428;10.906;2022-10-18T15:08:43;4.93;;;3.20;;
16179;SDS011;8196;49.428;10.906;2022-10-18T15:11:12;6.55;;;3.33;;
16179;SDS011;8196;49.428;10.906;2022-10-18T15:13:43;5.25;;;3.33;;
16179;SDS011;8196;49.428;10.906;2022-10-18T15:16:15;6.57;;;3.38;;
16179;SDS011;8196;49.428;10.906;2022-10-18T15:18:56;6.68;;;3.45;;
16179;SDS011;8196;49.428;10.906;2022-10-18T15:21:24;4.47;;;3.47;;
16179;SDS011;8196;49.428;10.906;2022-10-18T15:23:52;4.45;;;3.30;;
16179;SDS011;8196;49.428;10.906;2022-10-18T15:26:21;4.93;;;3.60;;
16179;SDS011;8196;49.428;10.906;2022-10-18T15:28:50;5.22;;;3.40;;
16179;SDS011;8196;49.428;10.906;2022-10-18T15:31:27;4.25;;;3.33;;
16179;SDS011;8196;49.428;10.906;2022-10-18T15:34:06;4.50;;;3.30;;
16179;SDS011;8196;49.428;10.906;2022-10-18T15:36:34;4.55;;;3.72;;
16179;SDS011;8196;49.428;10.906;2022-10-18T15:39:04;4.40;;;3.45;;
16179;SDS011;8196;49.428;10.906;2022-10-18T15:41:35;7.25;;;6.00;;
16179;SDS011;8196;49.428;10.906;2022-10-18T15:44:05;6.50;;;5.25;;
16179;SDS011;8196;49.428;10.906;2022-10-18T15:46:39;6.03;;;4.00;;
16179;SDS011;8196;49.428;10.906;2022-10-18T15:49:44;4.88;;;3.58;;
16179;SDS011;8196;49.428;10.906;2022-10-18T15:51:57;4.72;;;4.10;;
16179;SDS011;8196;49.428;10.906;2022-10-18T15:54:40;5.00;;;4.03;;
16179;SDS011;8196;49.428;10.906;2022-10-18T15:57:08;4.70;;;3.42;;
16179;SDS011;8196;49.428;10.906;2022-10-18T15:59:36;4.10;;;3.70;;
16179;SDS011;8196;49.428;10.906;2022-10-18T16:02:14;6.47;;;4.07;;
16179;SDS011;8196;49.428;10.906;2022-10-18T16:04:41;4.78;;;4.22;;
16179;SDS011;8196;49.428;10.906;2022-10-18T16:07:09;8.00;;;4.53;;
16179;SDS011;8196;49.428;10.906;2022-10-18T16:09:37;6.60;;;4.78;;
16179;SDS011;8196;49.428;10.906;2022-10-18T16:12:04;6.28;;;4.65;;
16179;SDS011;8196;49.428;10.906;2022-10-18T16:14:32;5.82;;;5.32;;
16179;SDS011;8196;49.428;10.906;2022-10-18T16:17:00;4.22;;;3.83;;
16179;SDS011;8196;49.428;10.906;2022-10-18T16:19:27;5.32;;;4.82;;
16179;SDS011;8196;49.428;10.906;2022-10-18T16:21:55;9.77;;;7.05;;
16179;SDS011;8196;49.428;10.906;2022-10-18T16:24:25;6.55;;;5.72;;
16179;SDS011;8196;49.428;10.906;2022-10-18T16:26:52;8.18;;;7.13;;
16179;SDS011;8196;49.428;10.906;2022-10-18T16:29:21;7.20;;;6.50;;
16179;SDS011;8196;49.428;10.906;2022-10-18T16:31:51;7.88;;;4.85;;
16179;SDS011;8196;49.428;10.906;2022-10-18T16:34:22;6.07;;;3.87;;
16179;SDS011;8196;49.428;10.906;2022-10-18T16:36:51;5.18;;;3.50;;
16179;SDS011;8196;49.428;10.906;2022-10-18T16:39:19;7.47;;;3.50;;
16179;SDS011;8196;49.428;10.906;2022-10-18T16:41:47;6.88;;;3.90;;
16179;SDS011;8196;49.428;10.906;2022-10-18T16:44:14;6.50;;;3.50;;
16179;SDS011;8196;49.428;10.906;2022-10-18T16:46:42;4.03;;;3.60;;
16179;SDS011;8196;49.428;10.906;2022-10-18T16:49:16;4.95;;;3.42;;
16179;SDS011;8196;49.428;10.906;2022-10-18T16:51:49;6.03;;;3.70;;
16179;SDS011;8196;49.428;10.906;2022-10-18T16:54:16;4.20;;;3.80;;
16179;SDS011;8196;49.428;10.906;2022-10-18T16:56:43;4.27;;;3.83;;
16179;SDS011;8196;49.428;10.906;2022-10-18T16:59:20;4.85;;;4.13;;
16179;SDS011;8196;49.428;10.906;2022-10-18T17:01:48;4.40;;;3.80;;
16179;SDS011;8196;49.428;10.906;2022-10-18T17:04:16;5.93;;;3.97;;
16179;SDS011;8196;49.428;10.906;2022-10-18T17:06:43;7.23;;;3.93;;
16179;SDS011;8196;49.428;10.906;2022-10-18T17:09:11;5.45;;;4.45;;
16179;SDS011;8196;49.428;10.906;2022-10-18T17:11:40;4.50;;;3.70;;
16179;SDS011;8196;49.428;10.906;2022-10-18T17:14:07;5.40;;;4.45;;
16179;SDS011;8196;49.428;10.906;2022-10-18T17:16:34;4.22;;;3.83;;
16179;SDS011;8196;49.428;10.906;2022-10-18T17:19:03;6.82;;;4.20;;
16179;SDS011;8196;49.428;10.906;2022-10-18T17:21:31;5.53;;;4.30;;
16179;SDS011;8196;49.428;10.906;2022-10-18T17:23:59;4.75;;;4.05;;
16179;SDS011;8196;49.428;10.906;2022-10-18T17:26:28;4.72;;;3.88;;